createdAt,value
2023-01-28T00:01:29.356Z,-4.99
2023-01-28T00:04:03.093Z,-5.01
2023-01-28T00:06:38.095Z,-5.01
2023-01-28T00:09:12.241Z,-5.05
2023-01-28T00:11:47.581Z,-5.04
2023-01-28T00:14:22.235Z,-5.04
2023-01-28T00:16:56.831Z,-5.06
2023-01-28T00:19:29.740Z,-5.06
2023-01-28T00:22:04.700Z,-5.03
2023-01-28T00:24:38.598Z,-5.02
2023-01-28T00:27:11.523Z,-5.02
2023-01-28T00:29:45.531Z,-5.02
2023-01-28T00:32:19.286Z,-5.03
2023-01-28T00:34:52.350Z,-5.08
2023-01-28T00:37:26.120Z,-5.18
2023-01-28T00:40:00.365Z,-5.22
2023-01-28T00:42:35.630Z,-5.18
2023-01-28T00:45:10.549Z,-5.11
2023-01-28T00:47:45.549Z,-5.06
2023-01-28T00:50:20.633Z,-5.01
2023-01-28T00:52:54.979Z,-5.00
2023-01-28T00:55:28.722Z,-5.00
2023-01-28T00:58:01.909Z,-4.97
2023-01-28T01:00:36.798Z,-4.97
2023-01-28T01:03:10.936Z,-4.98
2023-01-28T01:05:44.042Z,-4.98
2023-01-28T01:08:18.243Z,-5.00
2023-01-28T01:10:51.967Z,-5.02
2023-01-28T01:13:25.883Z,-5.04
2023-01-28T01:16:12.308Z,-5.05
2023-01-28T01:18:46.320Z,-5.06
2023-01-28T01:21:23.722Z,-5.06
2023-01-28T01:23:58.147Z,-5.06
2023-01-28T01:26:32.111Z,-5.09
2023-01-28T01:29:05.814Z,-5.10
2023-01-28T01:31:41.167Z,-5.12
2023-01-28T01:34:15.139Z,-5.13
2023-01-28T01:36:48.157Z,-5.12
2023-01-28T01:39:21.793Z,-5.14
2023-01-28T01:41:55.566Z,-5.17
2023-01-28T01:44:59.961Z,-5.17
2023-01-28T01:47:58.766Z,-5.18
2023-01-28T01:50:42.945Z,-5.18
2023-01-28T01:53:19.439Z,-5.15
2023-01-28T01:55:57.268Z,-5.11
2023-01-28T01:58:34.890Z,-5.07
2023-01-28T02:01:09.840Z,-5.03
2023-01-28T02:03:54.482Z,-4.96
2023-01-28T02:06:28.792Z,-4.90
2023-01-28T02:09:03.795Z,-4.85
2023-01-28T02:11:39.606Z,-4.77
2023-01-28T02:14:22.391Z,-4.71
2023-01-28T02:16:49.191Z,-4.67
2023-01-28T02:19:25.273Z,-4.63
2023-01-28T02:22:30.720Z,-4.58
2023-01-28T02:25:36.594Z,-4.55
2023-01-28T02:28:40.492Z,-4.54
2023-01-28T02:31:21.211Z,-4.52
2023-01-28T02:34:02.552Z,-4.52
2023-01-28T02:36:54.634Z,-4.51
2023-01-28T02:39:33.959Z,-4.52
2023-01-28T02:42:18.409Z,-4.55
2023-01-28T02:44:52.330Z,-4.55
2023-01-28T02:47:45.202Z,-4.56
2023-01-28T02:50:20.581Z,-4.58
2023-01-28T02:53:44.385Z,-4.57
2023-01-28T02:56:25.081Z,-4.56
2023-01-28T02:59:14.232Z,-4.53
2023-01-28T03:01:48.894Z,-4.49
2023-01-28T03:04:51.745Z,-4.44
2023-01-28T03:07:28.801Z,-4.39
2023-01-28T03:10:06.714Z,-4.37
2023-01-28T03:13:01.049Z,-4.33
2023-01-28T03:16:02.750Z,-4.30
2023-01-28T03:19:09.906Z,-4.25
2023-01-28T03:22:03.030Z,-4.22
2023-01-28T03:24:59.911Z,-4.18
2023-01-28T03:28:05.828Z,-4.14
2023-01-28T03:31:07.334Z,-4.12
2023-01-28T03:34:02.642Z,-4.09
2023-01-28T03:36:52.067Z,-4.06
2023-01-28T03:39:31.909Z,-4.04
2023-01-28T03:42:13.881Z,-4.00
2023-01-28T03:44:52.903Z,-3.98
2023-01-28T03:47:34.396Z,-3.97
2023-01-28T03:50:11.591Z,-3.96
2023-01-28T03:52:58.243Z,-3.90
2023-01-28T03:55:33.990Z,-3.89
2023-01-28T03:58:08.477Z,-3.88
2023-01-28T04:00:44.760Z,-3.87
2023-01-28T04:03:20.715Z,-3.83
2023-01-28T04:06:06.536Z,-3.82
2023-01-28T04:08:53.298Z,-3.80
2023-01-28T04:11:40.864Z,-3.79
2023-01-28T04:14:16.395Z,-3.80
2023-01-28T04:16:52.574Z,-3.82
2023-01-28T04:19:28.335Z,-3.84
2023-01-28T04:22:02.644Z,-3.85
2023-01-28T04:24:36.708Z,-3.86
2023-01-28T04:27:11.204Z,-3.86
2023-01-28T04:29:45.335Z,-3.86
2023-01-28T04:32:30.566Z,-3.85
2023-01-28T04:35:09.441Z,-3.83
2023-01-28T04:37:54.105Z,-3.79
2023-01-28T04:40:46.586Z,-3.75
2023-01-28T04:43:22.775Z,-3.74
2023-01-28T04:45:59.099Z,-3.70
2023-01-28T04:48:37.558Z,-3.67
2023-01-28T04:51:28.683Z,-3.63
2023-01-28T04:54:20.638Z,-3.59
2023-01-28T04:56:56.580Z,-3.57
2023-01-28T04:59:30.741Z,-3.53
2023-01-28T05:02:05.495Z,-3.50
2023-01-28T05:04:39.381Z,-3.46
2023-01-28T05:07:14.593Z,-3.43
2023-01-28T05:09:48.900Z,-3.41
2023-01-28T05:12:23.882Z,-3.40
2023-01-28T05:14:58.054Z,-3.38
2023-01-28T05:17:32.730Z,-3.38
2023-01-28T05:20:07.665Z,-3.37
2023-01-28T05:22:42.511Z,-3.38
2023-01-28T05:25:18.373Z,-3.41
2023-01-28T05:27:55.776Z,-3.43
2023-01-28T05:30:29.864Z,-3.44
2023-01-28T05:33:04.173Z,-3.46
2023-01-28T05:35:38.426Z,-3.49
2023-01-28T05:38:14.933Z,-3.49
2023-01-28T05:40:49.859Z,-3.48
2023-01-28T05:43:23.757Z,-3.48
2023-01-28T05:46:15.314Z,-3.46
2023-01-28T05:49:08.877Z,-3.42
2023-01-28T05:52:01.899Z,-3.43
2023-01-28T05:54:38.174Z,-3.44
2023-01-28T05:57:13.116Z,-3.41
2023-01-28T05:59:46.843Z,-3.37
2023-01-28T06:02:21.061Z,-3.33
2023-01-28T06:04:56.408Z,-3.28
2023-01-28T06:07:30.216Z,-3.25
2023-01-28T06:10:03.278Z,-3.22
2023-01-28T06:12:37.233Z,-3.17
2023-01-28T06:15:29.266Z,-3.12
2023-01-28T06:18:07.672Z,-3.06
2023-01-28T06:20:42.920Z,-2.99
2023-01-28T06:23:17.073Z,-2.96
2023-01-28T06:25:51.730Z,-2.95
2023-01-28T06:28:25.163Z,-2.93
2023-01-28T06:30:58.908Z,-2.93
2023-01-28T06:33:32.765Z,-2.90
2023-01-28T06:36:08.323Z,-2.90
2023-01-28T06:38:42.241Z,-2.89
2023-01-28T06:41:15.971Z,-2.87
2023-01-28T06:43:49.986Z,-2.83
2023-01-28T06:46:25.099Z,-2.80
2023-01-28T06:48:59.047Z,-2.75
2023-01-28T06:51:34.739Z,-2.68
2023-01-28T06:54:09.428Z,-2.58
2023-01-28T06:56:43.470Z,-2.50
2023-01-28T06:59:18.078Z,-2.47
2023-01-28T07:01:52.676Z,-2.46
2023-01-28T07:04:25.955Z,-2.44
2023-01-28T07:06:59.987Z,-2.40
2023-01-28T07:09:34.165Z,-2.38
2023-01-28T07:12:08.703Z,-2.33
2023-01-28T07:14:44.046Z,-2.28
2023-01-28T07:17:18.649Z,-2.26
2023-01-28T07:19:53.472Z,-2.20
2023-01-28T07:22:27.918Z,-2.14
2023-01-28T07:25:02.626Z,-2.11
2023-01-28T07:27:36.656Z,-2.08
2023-01-28T07:30:13.408Z,-2.05
2023-01-28T07:32:47.613Z,-2.01
2023-01-28T07:35:21.485Z,-1.90
2023-01-28T07:38:02.876Z,-1.74
2023-01-28T07:40:36.730Z,-1.74
2023-01-28T07:43:11.279Z,-1.65
2023-01-28T07:45:48.567Z,-1.60
2023-01-28T07:48:22.551Z,-1.58
2023-01-28T07:50:59.528Z,-1.56
2023-01-28T07:53:34.075Z,-1.51
2023-01-28T07:56:08.291Z,-1.43
2023-01-28T07:58:42.275Z,-1.38
2023-01-28T08:01:45.209Z,-1.36
2023-01-28T08:04:19.483Z,-1.32
2023-01-28T08:06:54.097Z,-1.23
2023-01-28T08:09:28.058Z,-1.22
2023-01-28T12:12:05.402Z,-0.90
2023-01-28T12:15:12.010Z,-0.71
2023-01-28T12:17:55.350Z,-0.64
2023-01-28T12:20:49.713Z,-0.59
2023-01-28T12:24:11.548Z,-0.53
2023-01-28T12:27:17.893Z,-0.50
2023-01-28T12:30:17.107Z,-0.51
2023-01-28T12:33:06.673Z,-0.52
2023-01-28T12:36:14.146Z,-0.50
2023-01-28T12:39:06.499Z,-0.50
2023-01-28T12:41:46.626Z,-0.46
2023-01-28T12:44:29.990Z,-0.43
2023-01-28T12:47:10.423Z,-0.43
2023-01-28T12:49:53.847Z,-0.42
2023-01-28T12:52:37.490Z,-0.42
2023-01-28T12:55:45.581Z,-0.42
2023-01-28T12:58:25.438Z,-0.43
2023-01-28T13:01:02.798Z,-0.42
2023-01-28T13:04:07.500Z,-0.41
2023-01-28T13:06:53.746Z,-0.39
2023-01-28T13:09:28.401Z,-0.39
2023-01-28T13:12:02.243Z,-0.40
2023-01-28T13:14:36.553Z,-0.41
2023-01-28T13:17:14.999Z,-0.40
2023-01-28T13:19:48.257Z,-0.42
2023-01-28T13:22:37.155Z,-0.43
2023-01-28T13:25:27.440Z,-0.43
2023-01-28T13:28:06.986Z,-0.42
2023-01-28T13:30:50.086Z,-0.41
2023-01-28T13:33:36.531Z,-0.41
2023-01-28T13:36:47.330Z,-0.41
2023-01-28T13:39:23.715Z,-0.40
2023-01-28T13:42:17.369Z,-0.40
2023-01-28T13:44:50.538Z,-0.41
2023-01-28T13:47:35.714Z,-0.42
2023-01-28T13:50:16.343Z,-0.42
2023-01-28T13:53:16.359Z,-0.43
2023-01-28T13:55:50.133Z,-0.43
2023-01-28T13:58:49.312Z,-0.45
2023-01-28T14:01:57.009Z,-0.48
2023-01-28T14:04:59.881Z,-0.49
2023-01-28T14:07:52.430Z,-0.50
2023-01-28T14:10:38.720Z,-0.51
2023-01-28T14:13:20.031Z,-0.51
2023-01-28T14:16:12.892Z,-0.50
2023-01-28T14:18:47.097Z,-0.47
2023-01-28T14:21:22.368Z,-0.46
2023-01-28T14:23:57.935Z,-0.46
2023-01-28T14:27:00.442Z,-0.46
2023-01-28T14:29:44.400Z,-0.45
2023-01-28T14:32:32.687Z,-0.44
2023-01-28T14:35:10.845Z,-0.43
2023-01-28T14:37:44.012Z,-0.42
2023-01-28T14:40:18.983Z,-0.42
2023-01-28T14:42:56.270Z,-0.39
2023-01-28T14:46:07.695Z,-0.35
2023-01-28T14:48:54.307Z,-0.33
2023-01-28T14:52:00.306Z,-0.30
2023-01-28T14:55:02.011Z,-0.31
2023-01-28T14:57:50.154Z,-0.33
2023-01-28T15:00:27.713Z,-0.33
2023-01-28T15:03:01.853Z,-0.31
2023-01-28T15:05:35.297Z,-0.31
2023-01-28T15:08:08.854Z,-0.27
2023-01-28T15:10:46.251Z,-0.26
2023-01-28T15:13:32.231Z,-0.25
2023-01-28T18:45:23.401Z,-0.71
2023-01-28T18:47:56.801Z,-0.53
2023-01-28T18:50:30.583Z,-0.50
2023-01-28T18:53:04.627Z,-0.47
2023-01-28T18:55:37.533Z,-0.41
2023-01-28T18:58:10.324Z,-0.36
2023-01-28T19:00:44.166Z,-0.31
2023-01-28T19:03:17.091Z,-0.25
2023-01-28T19:05:49.939Z,-0.20
2023-01-28T19:08:23.733Z,-0.16
2023-01-28T19:10:58.573Z,-0.16
2023-01-28T19:13:31.910Z,-0.14
2023-01-28T19:16:06.469Z,-0.12
2023-01-28T19:18:39.753Z,-0.10
2023-01-28T19:21:12.704Z,-0.08
2023-01-28T19:23:50.184Z,-0.06
2023-01-28T19:26:22.170Z,-0.05
2023-01-28T19:28:56.517Z,-0.03
2023-01-28T19:31:30.197Z,-0.04
2023-01-28T19:34:04.044Z,-0.06
2023-01-28T19:36:36.561Z,-0.07
2023-01-28T19:39:10.224Z,-0.08
2023-01-28T19:41:43.337Z,-0.09
2023-01-28T19:44:16.271Z,-0.10
2023-01-28T19:46:52.912Z,-0.09
2023-01-28T19:49:27.653Z,-0.10
2023-01-28T19:52:00.928Z,-0.10
2023-01-28T19:54:34.216Z,-0.12
2023-01-28T19:57:07.891Z,-0.13
2023-01-28T19:59:41.551Z,-0.13
2023-01-28T20:02:14.470Z,-0.12
2023-01-28T20:05:00.046Z,-0.12
2023-01-28T20:07:22.704Z,-0.12
2023-01-28T20:09:56.383Z,-0.12
2023-01-28T20:12:30.019Z,-0.12
2023-01-28T20:15:03.223Z,-0.12
2023-01-28T20:17:36.888Z,-0.12
2023-01-28T20:20:11.608Z,-0.12
2023-01-28T20:22:45.276Z,-0.12
2023-01-28T20:25:19.528Z,-0.11
2023-01-28T20:27:52.688Z,-0.13
2023-01-28T20:30:27.273Z,-0.12
2023-01-28T20:33:00.664Z,-0.11
2023-01-28T20:35:33.728Z,-0.11
2023-01-28T20:38:07.698Z,-0.10
2023-01-28T20:40:42.549Z,-0.11
2023-01-28T20:43:16.028Z,-0.11
2023-01-28T20:45:49.086Z,-0.12
2023-01-28T20:48:22.922Z,-0.12
2023-01-28T20:50:56.440Z,-0.12
2023-01-28T20:53:29.714Z,-0.14
2023-01-28T20:56:03.108Z,-0.16
2023-01-28T20:58:36.058Z,-0.15
2023-01-28T21:01:09.129Z,-0.16
2023-01-28T21:03:42.275Z,-0.18
2023-01-28T21:06:15.827Z,-0.18
2023-01-28T21:08:49.544Z,-0.19
2023-01-28T21:11:24.232Z,-0.21
2023-01-28T21:13:57.907Z,-0.22
2023-01-28T21:16:31.199Z,-0.23
2023-01-28T21:19:04.179Z,-0.24
2023-01-28T21:21:38.112Z,-0.24
2023-01-28T21:24:12.249Z,-0.26
2023-01-28T21:26:45.267Z,-0.26
2023-01-28T21:29:19.149Z,-0.27
2023-01-28T21:31:52.282Z,-0.28
2023-01-28T21:34:26.295Z,-0.30
2023-01-28T21:36:59.339Z,-0.31
2023-01-28T21:39:33.894Z,-0.32
2023-01-28T21:42:07.068Z,-0.33
2023-01-28T21:44:40.074Z,-0.34
2023-01-28T21:47:14.045Z,-0.33
2023-01-28T21:49:47.993Z,-0.35
2023-01-28T21:52:22.503Z,-0.35
2023-01-28T21:54:55.538Z,-0.37
2023-01-28T21:57:29.189Z,-0.36
2023-01-28T22:00:02.527Z,-0.37
2023-01-28T22:02:37.784Z,-0.38
2023-01-28T22:05:11.242Z,-0.38
2023-01-28T22:07:44.281Z,-0.38
2023-01-28T22:10:19.055Z,-0.36
2023-01-28T22:12:53.947Z,-0.34
2023-01-28T22:15:27.491Z,-0.35
2023-01-28T22:18:01.221Z,-0.37
2023-01-28T22:20:35.582Z,-0.38
2023-01-28T22:23:08.803Z,-0.38
2023-01-28T22:25:42.709Z,-0.38
2023-01-28T22:28:16.126Z,-0.36
2023-01-28T22:30:49.705Z,-0.34
2023-01-28T22:33:22.787Z,-0.32
2023-01-28T22:35:56.012Z,-0.30
2023-01-28T22:38:29.156Z,-0.30
2023-01-28T22:41:14.907Z,-0.30
2023-01-28T22:43:49.137Z,-0.29
2023-01-28T22:46:25.713Z,-0.29
2023-01-28T22:48:58.852Z,-0.29
2023-01-28T22:51:35.400Z,-0.30
2023-01-28T22:54:09.303Z,-0.29
2023-01-28T22:56:42.393Z,-0.30
2023-01-28T22:59:16.017Z,-0.30
2023-01-28T23:01:49.264Z,-0.29
2023-01-28T23:04:22.307Z,-0.29
2023-01-28T23:06:55.262Z,-0.29
2023-01-28T23:09:28.500Z,-0.29
2023-01-28T23:12:01.540Z,-0.28
2023-01-28T23:14:52.970Z,-0.29
2023-01-28T23:17:44.029Z,-0.29
2023-01-28T23:20:35.681Z,-0.28
2023-01-28T23:23:29.790Z,-0.28
2023-01-28T23:26:02.882Z,-0.28
2023-01-28T23:28:35.843Z,-0.28
2023-01-28T23:31:09.015Z,-0.28
2023-01-28T23:33:42.187Z,-0.27
2023-01-28T23:36:15.406Z,-0.24
2023-01-28T23:38:48.489Z,-0.23
2023-01-28T23:41:21.618Z,-0.24
2023-01-28T23:43:54.597Z,-0.23
2023-01-28T23:46:38.901Z,-0.21
2023-01-28T23:49:03.335Z,-0.21
2023-01-28T23:51:36.814Z,-0.19
2023-01-28T23:54:09.909Z,-0.20
2023-01-28T23:56:42.840Z,-0.17
2023-01-28T23:59:15.795Z,-0.18
